Luban — 5VCN9 — position and weather

sailwx.info

Track history (hours):
 
Tides and Currents Weather Stations Pressure Air Temp Water Temp Dewpoint Dewpoint Depression Visibility Wind Speed Wind Dir Waves Ship Positions

Luban

Last reported at 2017-Dec-23 16:39 UTC. Time now 2018-Feb-21 13:13 UTC.
Position N 31°11' E 033°48'.
Warning: this ship's position is 59 days out of date.

Length 82 m; draft 4 m.

Type: Cargo ship. MMSI: 671443000.

Date/timePositionNaut miles runAvg speedWind from/ knotsBaromVisibWave heightAir tempDewpointWater temp
2017-Dec-23 16:39N 31°11' E 033°48'0 0.0
2017-Dec-23 13:04N 31°11' E 033°48'36 0.9
2017-Dec-21 21:40N 31°46' E 033°36'8 9.2
2017-Dec-21 20:45N 31°54' E 033°39'5 9.5
2017-Dec-21 20:15N 31°58' E 033°40'7 9.4
2017-Dec-21 19:34N 32°04' E 033°42'1 9.5
2017-Dec-21 19:30N 32°05' E 033°42'5 9.2
2017-Dec-21 19:00N 32°10' E 033°43'4 8.9
2017-Dec-21 18:30N 32°14' E 033°44'5 9.2
2017-Dec-21 17:58N 32°19' E 033°45'4 9.0
2017-Dec-21 17:30N 32°23' E 033°46'4 8.9
2017-Dec-21 17:00N 32°27' E 033°47'5 9.2
2017-Dec-21 16:31N 32°32' E 033°48'5 9.1
2017-Dec-21 16:01N 32°36' E 033°49'5 9.2
2017-Dec-21 15:30N 32°41' E 033°51'5 9.0
2017-Dec-21 15:00N 32°45' E 033°51'5 8.9
2017-Dec-21 14:29N 32°50' E 033°52'4 9.2
2017-Dec-21 14:01N 32°54' E 033°53'5 9.0
2017-Dec-21 13:30N 32°59' E 033°54'65 8.9
2017-Dec-21 06:12N 33°52' E 034°38'2 8.8
2017-Dec-21 05:56N 33°54' E 034°40'  
Track history (hours):
 
Tides and Currents Weather Stations Pressure Air Temp Water Temp Dewpoint Dewpoint Depression Visibility Wind Speed Wind Dir Waves Ship Positions

Luban

Last reported at 2017-Dec-23 16:39 UTC. Time now 2018-Feb-21 13:13 UTC.
Position N 31°11' E 033°48'.
Warning: this ship's position is 59 days out of date.

Length 82 m; draft 4 m.

Type: Cargo ship. MMSI: 671443000.

Date/timePositionNaut miles runAvg speedWind from/ knotsBaromVisibWave heightAir tempDewpointWater temp
2017-Dec-23 16:39N 31°11' E 033°48'0 0.0
2017-Dec-23 13:04N 31°11' E 033°48'36 0.9
2017-Dec-21 21:40N 31°46' E 033°36'8 9.2
2017-Dec-21 20:45N 31°54' E 033°39'5 9.5
2017-Dec-21 20:15N 31°58' E 033°40'7 9.4
2017-Dec-21 19:34N 32°04' E 033°42'1 9.5
2017-Dec-21 19:30N 32°05' E 033°42'5 9.2
2017-Dec-21 19:00N 32°10' E 033°43'4 8.9
2017-Dec-21 18:30N 32°14' E 033°44'5 9.2
2017-Dec-21 17:58N 32°19' E 033°45'4 9.0
2017-Dec-21 17:30N 32°23' E 033°46'4 8.9
2017-Dec-21 17:00N 32°27' E 033°47'5 9.2
2017-Dec-21 16:31N 32°32' E 033°48'5 9.1
2017-Dec-21 16:01N 32°36' E 033°49'5 9.2
2017-Dec-21 15:30N 32°41' E 033°51'5 9.0
2017-Dec-21 15:00N 32°45' E 033°51'5 8.9
2017-Dec-21 14:29N 32°50' E 033°52'4 9.2
2017-Dec-21 14:01N 32°54' E 033°53'5 9.0
2017-Dec-21 13:30N 32°59' E 033°54'65 8.9
2017-Dec-21 06:12N 33°52' E 034°38'2 8.8
2017-Dec-21 05:56N 33°54' E 034°40'  

Dump ship's entire track history